createdAt,value
2022-10-19T00:00:25.277Z,15.55
2022-10-19T00:01:18.267Z,15.50
2022-10-19T00:01:51.412Z,15.49
2022-10-19T00:02:24.561Z,15.55
2022-10-19T00:02:57.582Z,15.71
2022-10-19T00:03:30.814Z,15.91
2022-10-19T00:04:07.902Z,16.16
2022-10-19T00:04:42.135Z,16.45
2022-10-19T00:05:15.307Z,16.68
2022-10-19T00:05:48.377Z,16.90
2022-10-19T00:06:25.978Z,17.11
2022-10-19T00:06:59.820Z,17.33
2022-10-19T00:07:33.012Z,17.50
2022-10-19T00:08:06.266Z,17.67
2022-10-19T00:08:39.747Z,17.82
2022-10-19T00:09:12.807Z,17.95
2022-10-19T00:09:45.986Z,18.07
2022-10-19T00:10:19.260Z,18.17
2022-10-19T00:10:52.274Z,18.24
2022-10-19T00:11:25.263Z,18.32
2022-10-19T00:11:58.232Z,18.38
2022-10-19T00:12:31.433Z,18.46
2022-10-19T00:13:04.475Z,18.54
2022-10-19T00:13:37.357Z,18.59
2022-10-19T00:14:10.256Z,18.56
2022-10-19T00:14:43.415Z,18.63
2022-10-19T00:15:16.627Z,18.72
2022-10-19T00:15:49.862Z,18.80
2022-10-19T00:16:22.944Z,18.87
2022-10-19T00:16:56.532Z,18.95
2022-10-19T00:17:29.461Z,19.03
2022-10-19T00:18:02.473Z,19.11
2022-10-19T00:18:35.461Z,19.18
2022-10-19T00:19:08.579Z,19.25
2022-10-19T00:19:41.540Z,19.32
2022-10-19T00:20:14.711Z,19.38
2022-10-19T00:20:47.755Z,19.44
2022-10-19T00:21:20.927Z,19.51
2022-10-19T00:21:53.941Z,19.59
2022-10-19T00:22:26.912Z,19.64
2022-10-19T00:22:59.961Z,19.70
2022-10-19T00:23:32.934Z,19.75
2022-10-19T00:24:05.985Z,19.74
2022-10-19T00:24:39.078Z,19.72
2022-10-19T00:25:12.206Z,19.71
2022-10-19T00:25:45.193Z,19.68
2022-10-19T00:26:18.195Z,19.66
2022-10-19T00:26:51.279Z,19.67
2022-10-19T00:27:24.337Z,19.69
2022-10-19T00:27:57.345Z,19.72
2022-10-19T00:28:30.432Z,19.76
2022-10-19T00:29:03.523Z,19.81
2022-10-19T00:29:36.652Z,19.86
2022-10-19T00:30:09.736Z,19.88
2022-10-19T00:30:43.059Z,19.91
2022-10-19T00:31:16.146Z,19.94
2022-10-19T00:31:49.576Z,19.97
2022-10-19T00:32:22.550Z,19.99
2022-10-19T00:32:56.151Z,20.01
2022-10-19T00:33:29.168Z,20.03
2022-10-19T00:34:02.290Z,20.05
2022-10-19T00:34:35.296Z,20.07
2022-10-19T00:35:08.626Z,20.08
2022-10-19T00:35:41.674Z,20.04
2022-10-19T00:36:14.667Z,20.00
2022-10-19T00:36:47.905Z,19.89
2022-10-19T00:37:20.943Z,19.75
2022-10-19T00:37:54.092Z,19.57
2022-10-19T00:38:27.375Z,19.36
2022-10-19T00:39:00.327Z,19.16
2022-10-19T00:39:33.485Z,18.95
2022-10-19T00:40:06.567Z,18.76
2022-10-19T00:40:39.520Z,18.59
2022-10-19T00:41:12.650Z,18.40
2022-10-19T00:41:45.940Z,18.23
2022-10-19T00:42:19.011Z,18.07
2022-10-19T00:42:51.982Z,17.93
2022-10-19T00:43:24.950Z,17.80
2022-10-19T00:43:58.115Z,17.67
2022-10-19T00:44:31.170Z,17.53
2022-10-19T00:45:04.191Z,17.42
2022-10-19T00:45:37.197Z,17.30
2022-10-19T00:46:10.075Z,17.21
2022-10-19T00:46:43.298Z,17.10
2022-10-19T00:47:16.434Z,16.99
2022-10-19T00:47:49.555Z,16.89
2022-10-19T00:48:22.618Z,16.81
2022-10-19T00:48:55.628Z,16.79
2022-10-19T00:49:28.653Z,16.86
2022-10-19T00:50:02.297Z,16.99
2022-10-19T00:50:35.399Z,17.18
2022-10-19T00:51:08.300Z,17.40
2022-10-19T00:51:41.392Z,17.60
2022-10-19T00:52:14.429Z,17.80
2022-10-19T00:52:47.627Z,17.98
2022-10-19T00:53:20.615Z,18.12
2022-10-19T00:53:53.774Z,18.23
2022-10-19T00:54:26.730Z,18.30
2022-10-19T00:54:59.678Z,18.31
2022-10-19T00:55:32.710Z,18.29
2022-10-19T00:56:05.821Z,18.23
2022-10-19T00:56:38.800Z,18.21
2022-10-19T00:57:11.780Z,18.24
2022-10-19T00:57:44.737Z,18.23
2022-10-19T00:58:17.777Z,18.20
2022-10-19T00:58:50.789Z,18.17
2022-10-19T00:59:25.345Z,18.15
2022-10-19T00:59:58.345Z,18.10
2022-10-19T01:00:31.507Z,18.05
2022-10-19T01:01:04.564Z,18.04
2022-10-19T01:01:37.598Z,18.10
2022-10-19T01:02:10.587Z,18.16
2022-10-19T01:02:43.594Z,18.25
2022-10-19T01:03:16.567Z,18.37
2022-10-19T01:03:49.517Z,18.45
2022-10-19T01:04:22.693Z,18.55
2022-10-19T01:04:55.723Z,18.59
2022-10-19T01:05:28.746Z,18.65
2022-10-19T01:06:01.885Z,18.73
2022-10-19T01:06:35.092Z,18.82
2022-10-19T01:07:08.389Z,18.85
2022-10-19T01:07:41.453Z,18.91
2022-10-19T01:08:14.489Z,18.97
2022-10-19T01:08:47.458Z,19.01
2022-10-19T01:09:20.361Z,19.06
2022-10-19T01:09:53.508Z,19.12
2022-10-19T01:10:26.446Z,19.14
2022-10-19T01:10:59.486Z,19.13
2022-10-19T01:11:32.811Z,19.07
2022-10-19T01:12:05.912Z,18.97
2022-10-19T01:12:38.928Z,18.79
2022-10-19T01:13:11.915Z,18.59
2022-10-19T01:13:45.124Z,18.34
2022-10-19T01:14:18.094Z,18.13
2022-10-19T01:14:51.093Z,17.94
2022-10-19T01:15:24.217Z,17.77
2022-10-19T01:15:57.265Z,17.59
2022-10-19T01:16:30.308Z,17.41
2022-10-19T01:17:03.369Z,17.23
2022-10-19T01:17:36.537Z,17.09
2022-10-19T01:18:09.640Z,16.94
2022-10-19T01:18:42.651Z,16.81
2022-10-19T01:19:15.728Z,16.75
2022-10-19T01:19:48.613Z,16.80
2022-10-19T01:20:21.784Z,16.93
2022-10-19T01:20:54.982Z,17.06
2022-10-19T01:21:28.109Z,17.20
2022-10-19T01:22:01.595Z,17.34
2022-10-19T01:22:34.569Z,17.45
2022-10-19T01:23:09.126Z,17.56
2022-10-19T01:23:42.203Z,17.67
2022-10-19T01:24:15.315Z,17.76
2022-10-19T01:24:48.222Z,17.82
2022-10-19T01:25:21.200Z,17.84
2022-10-19T01:25:54.626Z,17.88
2022-10-19T01:26:27.634Z,17.91
2022-10-19T01:27:00.582Z,17.95
2022-10-19T01:27:33.980Z,17.98
2022-10-19T01:28:07.260Z,18.00
2022-10-19T01:28:40.580Z,18.04
2022-10-19T01:29:13.648Z,18.07
2022-10-19T01:29:46.716Z,18.10
2022-10-19T01:30:19.840Z,18.13
2022-10-19T01:30:52.924Z,18.14
2022-10-19T01:31:25.820Z,18.15
2022-10-19T01:31:58.819Z,18.18
2022-10-19T01:32:31.815Z,18.20
2022-10-19T01:33:04.845Z,18.26
2022-10-19T01:33:37.907Z,18.35
2022-10-19T01:34:11.124Z,18.45
2022-10-19T01:34:44.346Z,18.54
2022-10-19T01:35:17.476Z,18.62
2022-10-19T01:35:50.503Z,18.70
2022-10-19T01:36:23.623Z,18.78
2022-10-19T01:36:56.739Z,18.85
2022-10-19T01:37:30.048Z,18.91
2022-10-19T01:38:03.143Z,18.96
2022-10-19T01:38:36.155Z,19.01
2022-10-19T01:39:09.207Z,19.03
2022-10-19T01:39:44.285Z,19.07
2022-10-19T01:40:19.624Z,19.12
2022-10-19T01:40:52.605Z,19.17
2022-10-19T01:41:25.676Z,19.22
2022-10-19T01:41:58.767Z,19.27
2022-10-19T01:42:31.835Z,19.31
2022-10-19T01:43:05.064Z,19.32
2022-10-19T01:43:38.086Z,19.32
2022-10-19T01:44:11.226Z,19.33
2022-10-19T01:44:44.453Z,19.34
2022-10-19T01:45:17.707Z,19.37
2022-10-19T01:45:50.698Z,19.38
2022-10-19T01:46:23.787Z,19.37
2022-10-19T01:46:56.912Z,19.33
2022-10-19T01:47:29.881Z,19.30
2022-10-19T01:48:02.812Z,19.28
2022-10-19T01:48:35.680Z,19.26
2022-10-19T01:49:08.644Z,19.20
2022-10-19T01:49:41.804Z,19.17
2022-10-19T01:50:15.196Z,19.15
2022-10-19T01:50:48.151Z,19.13
2022-10-19T01:51:21.337Z,19.12
2022-10-19T01:51:54.340Z,19.12
2022-10-19T01:52:27.488Z,19.11
2022-10-19T01:53:00.636Z,19.08
2022-10-19T01:53:33.701Z,19.03
2022-10-19T01:54:06.999Z,18.98
2022-10-19T01:54:40.275Z,18.91
2022-10-19T01:55:13.167Z,18.85
2022-10-19T01:55:46.117Z,18.81
2022-10-19T01:56:19.115Z,18.80
2022-10-19T01:56:52.279Z,18.78
2022-10-19T01:57:25.770Z,18.74
2022-10-19T01:57:59.184Z,18.69
2022-10-19T01:58:32.230Z,18.64
2022-10-19T01:59:05.343Z,18.58
2022-10-19T01:59:38.634Z,18.52
2022-10-19T02:00:11.637Z,18.45
2022-10-19T02:00:45.035Z,18.39
2022-10-19T02:01:18.337Z,18.32
2022-10-19T02:01:51.459Z,18.24
2022-10-19T02:02:25.216Z,18.14
2022-10-19T02:02:58.319Z,18.02
2022-10-19T02:03:31.572Z,17.88
2022-10-19T02:04:04.774Z,17.74
2022-10-19T02:04:37.917Z,17.60
2022-10-19T02:05:10.966Z,17.46
2022-10-19T02:05:44.014Z,17.35
2022-10-19T02:06:17.306Z,17.22
2022-10-19T02:06:50.340Z,17.11
2022-10-19T02:07:23.378Z,16.99
2022-10-19T02:07:56.401Z,16.88
2022-10-19T02:08:29.510Z,16.79
2022-10-19T02:09:02.590Z,16.68
2022-10-19T02:09:35.635Z,16.59
2022-10-19T02:10:09.175Z,16.50
2022-10-19T02:10:42.298Z,16.42
2022-10-19T02:11:15.415Z,16.34
2022-10-19T02:11:50.422Z,16.26
2022-10-19T02:12:25.388Z,16.17
2022-10-19T02:12:58.591Z,16.10
2022-10-19T02:13:32.071Z,16.03
2022-10-19T02:14:05.169Z,15.96
2022-10-19T02:14:38.416Z,15.88
2022-10-19T02:15:11.317Z,15.81
2022-10-19T02:15:44.468Z,15.75
2022-10-19T02:16:17.555Z,15.69
2022-10-19T02:16:50.674Z,15.63
2022-10-19T02:17:23.683Z,15.57
2022-10-19T02:17:57.520Z,15.52
2022-10-19T02:18:30.535Z,15.45
2022-10-19T02:19:03.506Z,15.41
2022-10-19T02:19:36.539Z,15.36
2022-10-19T02:20:09.710Z,15.31
2022-10-19T02:20:42.912Z,15.26
2022-10-19T02:21:15.935Z,15.21
2022-10-19T02:21:49.117Z,15.17
2022-10-19T02:22:22.205Z,15.13
2022-10-19T02:22:55.518Z,15.09
2022-10-19T02:23:28.607Z,15.05
2022-10-19T02:24:01.571Z,15.01
2022-10-19T02:24:34.597Z,14.97
2022-10-19T02:25:07.566Z,14.93
2022-10-19T02:25:40.526Z,14.89
2022-10-19T02:26:13.527Z,14.87
2022-10-19T02:26:46.528Z,14.83
2022-10-19T02:27:19.556Z,14.80
2022-10-19T02:27:52.619Z,14.76
2022-10-19T02:29:03.824Z,14.69
2022-10-19T02:29:36.941Z,14.66
2022-10-19T02:30:09.987Z,14.63
2022-10-19T02:30:43.126Z,14.61
2022-10-19T02:31:16.194Z,14.57
2022-10-19T02:31:49.205Z,14.55
2022-10-19T02:32:22.208Z,14.52
2022-10-19T02:32:55.266Z,14.50
2022-10-19T02:33:28.224Z,14.47
2022-10-19T02:34:01.411Z,14.45
2022-10-19T02:34:34.652Z,14.42
2022-10-19T02:35:07.697Z,14.40
2022-10-19T02:35:40.716Z,14.37
2022-10-19T02:36:13.701Z,14.35
2022-10-19T02:36:47.074Z,14.33
2022-10-19T02:37:22.171Z,14.32
2022-10-19T02:37:58.411Z,14.30
2022-10-19T02:38:31.478Z,14.30
2022-10-19T02:39:04.513Z,14.33
2022-10-19T02:39:37.434Z,14.41
2022-10-19T02:40:10.507Z,14.52
2022-10-19T02:40:43.516Z,14.65
2022-10-19T02:41:16.508Z,14.79
2022-10-19T02:41:49.499Z,14.92
2022-10-19T02:42:22.455Z,15.06
2022-10-19T02:42:55.529Z,15.16
2022-10-19T02:43:28.653Z,15.26
2022-10-19T02:44:01.878Z,15.34
2022-10-19T02:44:34.920Z,15.39
2022-10-19T02:45:08.049Z,15.42
2022-10-19T02:45:40.943Z,15.44
2022-10-19T02:46:14.078Z,15.47
2022-10-19T02:46:47.085Z,15.48
2022-10-19T02:47:20.094Z,15.48
2022-10-19T02:47:53.246Z,15.48
2022-10-19T02:48:26.548Z,15.49
2022-10-19T02:48:59.642Z,15.49
2022-10-19T02:49:32.602Z,15.50
2022-10-19T02:50:05.527Z,15.50
2022-10-19T02:50:38.729Z,15.50
2022-10-19T02:51:11.806Z,15.51
2022-10-19T02:51:44.918Z,15.51
2022-10-19T02:52:18.115Z,15.53
2022-10-19T02:52:51.329Z,15.57
2022-10-19T02:53:24.420Z,15.59
2022-10-19T02:53:59.940Z,15.61
2022-10-19T02:54:35.601Z,15.63
2022-10-19T02:55:08.610Z,15.64
2022-10-19T02:56:19.587Z,15.66
2022-10-19T02:56:52.653Z,15.66
2022-10-19T02:57:25.675Z,15.68
2022-10-19T02:57:58.683Z,15.68
2022-10-19T02:58:32.039Z,15.70
2022-10-19T02:59:05.324Z,15.69
2022-10-19T02:59:38.341Z,15.70
2022-10-19T03:00:11.380Z,15.69
2022-10-19T03:00:44.349Z,15.69
2022-10-19T03:01:17.545Z,15.68
2022-10-19T03:01:50.466Z,15.68
2022-10-19T03:02:23.396Z,15.66
2022-10-19T03:02:56.418Z,15.66
2022-10-19T03:03:29.461Z,15.65
2022-10-19T03:04:02.486Z,15.64
2022-10-19T03:04:35.603Z,15.64
2022-10-19T03:05:08.723Z,15.65
2022-10-19T03:05:41.786Z,15.66
2022-10-19T03:06:14.757Z,15.67
2022-10-19T03:06:47.774Z,15.69
2022-10-19T03:07:20.869Z,15.71
2022-10-19T03:07:54.029Z,15.73
2022-10-19T03:08:27.120Z,15.74
2022-10-19T03:09:00.143Z,15.75
2022-10-19T03:09:33.111Z,15.75
2022-10-19T03:10:06.139Z,15.74
2022-10-19T03:10:39.250Z,15.71
2022-10-19T03:11:12.290Z,15.70
2022-10-19T03:11:45.242Z,15.67
2022-10-19T03:12:18.254Z,15.65
2022-10-19T03:12:51.221Z,15.63
2022-10-19T03:13:24.175Z,15.62
2022-10-19T03:13:57.230Z,15.61
2022-10-19T03:14:30.215Z,15.60
2022-10-19T03:15:03.476Z,15.59
2022-10-19T03:15:36.647Z,15.57
2022-10-19T03:16:09.894Z,15.55
2022-10-19T03:16:42.902Z,15.53
2022-10-19T03:17:15.814Z,15.51
2022-10-19T03:17:48.744Z,15.49
2022-10-19T03:18:21.676Z,15.49
2022-10-19T03:18:55.091Z,15.48
2022-10-19T03:19:28.034Z,15.49
2022-10-19T03:20:01.287Z,15.48
2022-10-19T03:20:34.582Z,15.48
2022-10-19T03:21:07.837Z,15.47
2022-10-19T03:21:41.047Z,15.46
2022-10-19T03:22:14.760Z,15.45
2022-10-19T03:22:47.872Z,15.43
2022-10-19T03:23:21.057Z,15.40
2022-10-19T03:23:54.845Z,15.39
2022-10-19T03:24:27.944Z,15.38
2022-10-19T03:25:00.888Z,15.36
2022-10-19T03:25:33.917Z,15.34
2022-10-19T03:26:09.987Z,15.34
2022-10-19T03:26:45.236Z,15.32
2022-10-19T03:27:18.243Z,15.31
2022-10-19T03:27:51.271Z,15.30
2022-10-19T03:28:24.483Z,15.31
2022-10-19T03:28:57.696Z,15.33
2022-10-19T03:29:30.693Z,15.34
2022-10-19T03:30:03.703Z,15.36
2022-10-19T03:30:36.726Z,15.37
2022-10-19T03:31:09.764Z,15.39
2022-10-19T03:31:42.866Z,15.41
2022-10-19T03:32:16.177Z,15.41
2022-10-19T03:32:49.044Z,15.41
2022-10-19T03:33:22.177Z,15.40
2022-10-19T03:33:55.558Z,15.39
2022-10-19T03:34:28.608Z,15.38
2022-10-19T03:35:02.054Z,15.37
2022-10-19T03:35:35.202Z,15.35
2022-10-19T03:36:08.258Z,15.34
2022-10-19T03:36:41.716Z,15.33
2022-10-19T03:37:15.541Z,15.32
2022-10-19T03:37:48.793Z,15.30
2022-10-19T03:38:21.730Z,15.30
2022-10-19T03:38:54.803Z,15.28
2022-10-19T03:39:27.979Z,15.27
2022-10-19T03:40:01.011Z,15.25
2022-10-19T03:40:33.762Z,15.24
2022-10-19T03:41:06.839Z,15.22
2022-10-19T03:41:39.967Z,15.22
2022-10-19T03:42:13.000Z,15.23
2022-10-19T03:42:46.028Z,15.24
2022-10-19T03:43:19.076Z,15.24
2022-10-19T03:43:52.173Z,15.24
2022-10-19T03:44:25.241Z,15.24
2022-10-19T03:44:58.127Z,15.24
2022-10-19T03:45:31.177Z,15.22
2022-10-19T03:46:04.314Z,15.21
2022-10-19T03:46:37.613Z,15.21
2022-10-19T03:47:10.820Z,15.20
2022-10-19T03:47:44.070Z,15.19
2022-10-19T03:48:17.275Z,15.20
2022-10-19T03:48:50.282Z,15.20
2022-10-19T03:49:23.775Z,15.20
2022-10-19T03:49:56.781Z,15.20
2022-10-19T03:50:29.655Z,15.20
2022-10-19T03:51:02.664Z,15.20
2022-10-19T03:51:35.670Z,15.20
2022-10-19T03:52:10.349Z,15.20
2022-10-19T03:52:43.445Z,15.21
2022-10-19T03:53:16.471Z,15.20
2022-10-19T03:53:49.630Z,15.20
2022-10-19T03:54:26.515Z,15.19
2022-10-19T03:55:01.199Z,15.19
2022-10-19T03:55:34.218Z,15.19
2022-10-19T03:56:07.284Z,15.19
2022-10-19T03:56:40.632Z,15.17
2022-10-19T03:57:14.146Z,15.16
2022-10-19T03:57:47.082Z,15.15
2022-10-19T03:58:20.417Z,15.14
2022-10-19T03:58:53.383Z,15.13
2022-10-19T03:59:26.344Z,15.13
2022-10-19T03:59:59.315Z,15.12
2022-10-19T04:00:32.386Z,15.11
2022-10-19T04:01:05.373Z,15.11
2022-10-19T04:01:38.575Z,15.10
2022-10-19T04:02:11.652Z,15.09
2022-10-19T04:02:44.654Z,15.09
2022-10-19T04:03:17.708Z,15.08
2022-10-19T04:03:50.823Z,15.07
2022-10-19T04:04:23.965Z,15.07
2022-10-19T04:04:57.014Z,15.06
2022-10-19T04:05:30.041Z,15.05
2022-10-19T04:06:03.546Z,15.05
2022-10-19T04:06:36.661Z,15.05
2022-10-19T04:07:09.703Z,15.04
2022-10-19T04:07:43.130Z,15.04
2022-10-19T04:08:16.169Z,15.03
2022-10-19T04:08:49.130Z,15.03
2022-10-19T04:09:22.188Z,15.03
2022-10-19T04:09:55.115Z,15.03
2022-10-19T04:10:28.072Z,15.03
2022-10-19T04:11:01.482Z,15.02
2022-10-19T04:11:34.593Z,15.00
2022-10-19T04:12:07.616Z,15.00
2022-10-19T04:12:40.975Z,15.00
2022-10-19T04:13:13.861Z,14.99
2022-10-19T04:13:46.743Z,14.99
2022-10-19T04:14:31.605Z,14.98
2022-10-19T04:15:06.072Z,14.98
2022-10-19T04:15:39.236Z,14.98
2022-10-19T04:16:12.386Z,14.98
2022-10-19T04:16:45.302Z,14.98
2022-10-19T04:17:18.499Z,14.98
2022-10-19T04:17:51.862Z,14.98
2022-10-19T04:18:24.827Z,14.98
2022-10-19T04:18:57.914Z,14.98
2022-10-19T04:19:30.873Z,14.98
2022-10-19T04:20:03.862Z,15.02
2022-10-19T04:20:39.007Z,15.10
2022-10-19T04:21:12.101Z,15.26
2022-10-19T04:21:45.115Z,15.45
2022-10-19T04:22:18.038Z,15.66
2022-10-19T04:22:50.980Z,15.86
2022-10-19T04:23:24.067Z,16.06
2022-10-19T04:23:56.948Z,16.24
2022-10-19T04:24:30.082Z,16.41
2022-10-19T04:25:03.180Z,16.57
2022-10-19T04:25:36.165Z,16.72
2022-10-19T04:26:09.323Z,16.85
2022-10-19T04:26:42.385Z,16.95
2022-10-19T04:27:15.504Z,17.04
2022-10-19T04:27:48.694Z,17.12
2022-10-19T04:28:21.603Z,17.21
2022-10-19T04:28:54.644Z,17.31
2022-10-19T04:29:29.980Z,17.40
2022-10-19T04:30:04.140Z,17.49
2022-10-19T04:30:37.203Z,17.57
2022-10-19T04:31:10.345Z,17.65
2022-10-19T04:31:43.705Z,17.71
2022-10-19T04:32:16.635Z,17.77
2022-10-19T04:32:49.687Z,17.84
2022-10-19T04:33:22.791Z,17.89
2022-10-19T04:33:55.953Z,17.93
2022-10-19T04:34:29.200Z,17.97
2022-10-19T04:35:02.182Z,18.00
2022-10-19T04:35:35.234Z,18.03
2022-10-19T04:36:08.471Z,18.06
2022-10-19T04:36:41.356Z,18.09
2022-10-19T04:37:14.427Z,18.12
2022-10-19T04:37:47.463Z,18.14
2022-10-19T04:38:20.492Z,18.16
2022-10-19T04:38:53.310Z,18.21
2022-10-19T04:39:26.539Z,18.26
2022-10-19T04:39:59.742Z,18.33
2022-10-19T04:40:33.106Z,18.39
2022-10-19T04:41:06.195Z,18.44
2022-10-19T04:41:39.129Z,18.50
2022-10-19T04:42:12.161Z,18.57
2022-10-19T04:42:45.214Z,18.63
2022-10-19T04:43:18.321Z,18.69
2022-10-19T04:43:51.492Z,18.75
2022-10-19T04:45:02.541Z,18.85
2022-10-19T04:45:35.617Z,18.87
2022-10-19T04:46:08.727Z,18.91
2022-10-19T04:46:41.844Z,18.93
2022-10-19T04:47:14.863Z,18.92
2022-10-19T04:47:47.881Z,18.89
2022-10-19T04:48:20.870Z,18.86
2022-10-19T04:48:53.990Z,18.82
2022-10-19T04:49:26.956Z,18.76
2022-10-19T04:49:59.898Z,18.70
2022-10-19T04:50:32.924Z,18.62
2022-10-19T04:51:06.067Z,18.52
2022-10-19T04:51:39.185Z,18.43
2022-10-19T04:52:12.295Z,18.34
2022-10-19T04:52:45.401Z,18.26
2022-10-19T04:53:19.492Z,18.18
2022-10-19T04:53:56.936Z,18.12
2022-10-19T04:54:32.696Z,18.05
2022-10-19T04:55:05.859Z,17.97
2022-10-19T04:55:38.905Z,17.90
2022-10-19T04:56:11.995Z,17.85
2022-10-19T04:56:44.998Z,17.79
2022-10-19T04:57:18.283Z,17.74
2022-10-19T04:57:51.256Z,17.68
2022-10-19T04:58:24.301Z,17.63
2022-10-19T04:58:57.769Z,17.59
2022-10-19T04:59:30.966Z,17.53
2022-10-19T05:00:04.079Z,17.49
2022-10-19T05:00:37.427Z,17.44
2022-10-19T05:01:10.697Z,17.38
2022-10-19T05:01:47.181Z,17.34
2022-10-19T05:02:20.601Z,17.28
2022-10-19T05:02:53.689Z,17.23
2022-10-19T05:03:26.877Z,17.17
2022-10-19T05:04:00.197Z,17.12
2022-10-19T05:04:33.619Z,17.06
2022-10-19T05:05:06.721Z,17.01
2022-10-19T05:05:39.835Z,16.97
2022-10-19T05:06:12.949Z,16.91
2022-10-19T05:06:45.879Z,16.85
2022-10-19T05:07:19.156Z,16.80
2022-10-19T05:07:52.212Z,16.76
2022-10-19T05:08:25.121Z,16.71
2022-10-19T05:08:58.071Z,16.66
2022-10-19T05:09:31.206Z,16.62
2022-10-19T05:10:04.396Z,16.58
2022-10-19T05:10:37.406Z,16.54
2022-10-19T05:11:10.513Z,16.49
2022-10-19T05:11:43.716Z,16.45
2022-10-19T05:12:16.852Z,16.40
2022-10-19T05:12:49.810Z,16.36
2022-10-19T05:13:22.831Z,16.32
2022-10-19T05:13:55.798Z,16.29
2022-10-19T05:15:06.712Z,16.23
2022-10-19T05:15:39.922Z,16.21
2022-10-19T05:16:13.066Z,16.19
2022-10-19T05:16:46.069Z,16.16
2022-10-19T05:17:19.184Z,16.12
2022-10-19T05:17:52.335Z,16.09
2022-10-19T05:18:25.397Z,16.08
2022-10-19T05:18:59.936Z,16.06
2022-10-19T05:19:32.936Z,16.04
2022-10-19T05:20:05.997Z,16.02
2022-10-19T05:20:39.217Z,16.01
2022-10-19T05:21:12.299Z,15.99
2022-10-19T05:21:45.213Z,15.98
2022-10-19T05:22:18.528Z,15.95
2022-10-19T05:22:51.586Z,15.93
2022-10-19T05:23:24.646Z,15.91
2022-10-19T05:23:57.780Z,15.90
2022-10-19T05:24:32.900Z,15.88
2022-10-19T05:25:05.964Z,15.86
2022-10-19T05:25:38.883Z,15.85
2022-10-19T05:26:12.048Z,15.84
2022-10-19T05:26:45.055Z,15.82
2022-10-19T05:27:18.151Z,15.81
2022-10-19T05:27:51.221Z,15.80
2022-10-19T05:28:24.227Z,15.79
2022-10-19T05:28:57.414Z,15.78
2022-10-19T05:29:30.669Z,15.77
2022-10-19T05:30:03.794Z,15.76
2022-10-19T05:30:37.694Z,15.75
2022-10-19T05:31:10.675Z,15.74
2022-10-19T05:31:43.767Z,15.74
2022-10-19T05:32:16.930Z,15.73
2022-10-19T05:32:50.071Z,15.73
2022-10-19T05:33:23.187Z,15.73
2022-10-19T05:33:56.556Z,15.73
2022-10-19T05:34:29.738Z,15.72
2022-10-19T05:35:02.960Z,15.73
2022-10-19T05:35:35.987Z,15.73
2022-10-19T05:36:09.230Z,15.73
2022-10-19T05:36:42.351Z,15.74
2022-10-19T05:37:15.443Z,15.73
2022-10-19T05:37:48.446Z,15.74
2022-10-19T05:38:21.397Z,15.74
2022-10-19T05:38:54.606Z,15.74
2022-10-19T05:39:27.705Z,15.75
2022-10-19T05:40:00.613Z,15.74
2022-10-19T05:40:34.113Z,15.74
2022-10-19T05:41:07.201Z,15.75
2022-10-19T05:41:40.530Z,15.75
2022-10-19T05:42:13.580Z,15.74
2022-10-19T05:42:46.515Z,15.74
2022-10-19T05:43:19.600Z,15.74
2022-10-19T05:43:52.903Z,15.73
2022-10-19T05:44:25.955Z,15.73
2022-10-19T05:44:58.959Z,15.72
2022-10-19T05:45:31.928Z,15.72
2022-10-19T05:46:05.086Z,15.72
2022-10-19T05:46:38.162Z,15.70
2022-10-19T05:47:11.310Z,15.69
2022-10-19T05:47:44.530Z,15.67
2022-10-19T05:48:17.545Z,15.68
2022-10-19T05:48:50.539Z,15.67
2022-10-19T05:49:23.645Z,15.66
2022-10-19T05:49:56.832Z,15.66
2022-10-19T05:50:29.787Z,15.66
2022-10-19T05:51:03.322Z,15.66
2022-10-19T05:51:36.325Z,15.66
2022-10-19T05:52:09.453Z,15.67
2022-10-19T05:52:42.381Z,15.67
2022-10-19T05:53:15.373Z,15.66
2022-10-19T05:53:48.506Z,15.66
2022-10-19T05:54:23.756Z,15.66
2022-10-19T05:54:59.709Z,15.65
2022-10-19T05:55:32.707Z,15.64
2022-10-19T05:56:06.054Z,15.64
2022-10-19T05:56:39.215Z,15.63
2022-10-19T05:57:12.268Z,15.63
2022-10-19T05:57:45.279Z,15.61
2022-10-19T05:58:18.452Z,15.61
2022-10-19T05:58:51.847Z,15.60
2022-10-19T05:59:25.331Z,15.61
2022-10-19T05:59:58.764Z,15.61
2022-10-19T06:00:31.824Z,15.61
2022-10-19T06:01:05.067Z,15.60
2022-10-19T06:01:38.221Z,15.60
2022-10-19T06:02:11.250Z,15.60
2022-10-19T06:02:44.255Z,15.59
2022-10-19T06:03:18.044Z,15.59
2022-10-19T06:03:51.083Z,15.58
2022-10-19T06:04:24.175Z,15.59
2022-10-19T06:04:57.152Z,15.59
2022-10-19T06:05:30.131Z,15.58
2022-10-19T06:06:03.085Z,15.58
2022-10-19T06:06:36.223Z,15.57
2022-10-19T06:07:09.325Z,15.56
2022-10-19T06:07:42.431Z,15.56
2022-10-19T06:08:15.413Z,15.55
2022-10-19T06:08:48.499Z,15.55
2022-10-19T06:09:21.754Z,15.55
2022-10-19T06:09:54.686Z,15.55
2022-10-19T06:10:27.749Z,15.54
2022-10-19T06:11:00.859Z,15.56
2022-10-19T06:11:37.910Z,15.56
2022-10-19T06:12:11.011Z,15.55
2022-10-19T06:12:44.124Z,15.55
2022-10-19T06:13:17.181Z,15.59
2022-10-19T06:13:50.957Z,15.67
2022-10-19T06:14:23.982Z,15.81
2022-10-19T06:14:57.031Z,15.95
2022-10-19T06:15:30.030Z,16.09
2022-10-19T06:16:03.457Z,16.22
2022-10-19T06:16:36.563Z,16.32
2022-10-19T06:17:09.562Z,16.41
2022-10-19T06:17:42.618Z,16.47
2022-10-19T06:18:15.707Z,16.50
2022-10-19T06:18:48.788Z,16.51
2022-10-19T06:19:21.944Z,16.50
2022-10-19T06:19:54.959Z,16.50
2022-10-19T06:20:29.723Z,16.49
2022-10-19T06:21:03.134Z,16.48
2022-10-19T06:21:36.202Z,16.44
2022-10-19T06:22:09.309Z,16.40
2022-10-19T06:22:43.104Z,16.35
2022-10-19T06:23:16.185Z,16.29
2022-10-19T06:23:49.228Z,16.24
2022-10-19T06:24:22.228Z,16.20
2022-10-19T06:24:55.639Z,16.16
2022-10-19T06:25:28.686Z,16.12
2022-10-19T06:26:01.619Z,16.07
2022-10-19T06:26:34.670Z,16.03
2022-10-19T06:27:07.817Z,15.99
2022-10-19T06:27:40.941Z,15.96
2022-10-19T06:28:14.171Z,15.92
2022-10-19T06:28:47.190Z,15.89
2022-10-19T06:29:20.326Z,15.84
2022-10-19T06:29:53.593Z,15.80
2022-10-19T06:30:26.718Z,15.78
2022-10-19T06:30:59.973Z,15.75
2022-10-19T06:31:33.460Z,15.72
2022-10-19T06:32:06.656Z,15.69
2022-10-19T06:32:39.908Z,15.68
2022-10-19T06:33:12.807Z,15.66
2022-10-19T06:33:48.548Z,15.64
2022-10-19T06:34:22.680Z,15.61
2022-10-19T06:34:56.640Z,15.60
2022-10-19T06:35:30.045Z,15.59
2022-10-19T06:36:03.285Z,15.57
2022-10-19T06:36:36.328Z,15.56
2022-10-19T06:37:09.517Z,15.55
2022-10-19T06:37:42.651Z,15.54
2022-10-19T06:38:16.206Z,15.54
2022-10-19T06:38:49.158Z,15.53
2022-10-19T06:39:22.163Z,15.53
2022-10-19T06:39:55.257Z,15.53
2022-10-19T06:40:29.205Z,15.53
2022-10-19T06:41:02.687Z,15.52
2022-10-19T06:41:35.584Z,15.50
2022-10-19T06:42:09.947Z,15.50
2022-10-19T06:42:42.873Z,15.49
2022-10-19T06:43:15.981Z,15.50
2022-10-19T06:43:48.997Z,15.50
2022-10-19T06:44:22.023Z,15.50
2022-10-19T06:44:55.121Z,15.52
2022-10-19T06:45:31.122Z,15.53
2022-10-19T06:46:06.506Z,15.54
2022-10-19T06:46:39.713Z,15.55
2022-10-19T06:47:12.862Z,15.56
2022-10-19T06:47:48.955Z,15.57
2022-10-19T06:48:22.052Z,15.58
2022-10-19T06:48:55.057Z,15.58
2022-10-19T06:49:28.179Z,15.56
2022-10-19T06:50:01.233Z,15.57
2022-10-19T06:50:34.419Z,15.56
2022-10-19T06:51:07.924Z,15.58
2022-10-19T06:51:40.987Z,15.60
2022-10-19T06:52:14.091Z,15.61
2022-10-19T06:52:47.216Z,15.62
2022-10-19T06:53:20.413Z,15.63
2022-10-19T06:53:56.520Z,15.64
2022-10-19T06:54:30.141Z,15.65
2022-10-19T06:55:03.201Z,15.69
2022-10-19T06:55:36.386Z,15.73
2022-10-19T06:56:09.497Z,15.75
2022-10-19T06:56:42.480Z,15.77
2022-10-19T06:57:15.475Z,15.78
2022-10-19T06:57:48.340Z,15.78
2022-10-19T06:58:21.414Z,15.78
2022-10-19T06:58:57.714Z,15.78
2022-10-19T06:59:30.802Z,15.76
2022-10-19T07:00:03.958Z,15.76
2022-10-19T07:00:37.335Z,15.74
2022-10-19T07:01:12.086Z,15.73
2022-10-19T07:01:45.403Z,15.72
2022-10-19T07:02:18.561Z,15.71
2022-10-19T07:02:51.669Z,15.70
2022-10-19T07:03:25.017Z,15.69
2022-10-19T07:03:58.082Z,15.67
2022-10-19T07:04:31.342Z,15.64
2022-10-19T07:05:06.235Z,15.63
2022-10-19T07:05:40.251Z,15.60
2022-10-19T07:06:13.261Z,15.57
2022-10-19T07:06:46.315Z,15.56
2022-10-19T07:07:19.484Z,15.53
2022-10-19T07:07:52.563Z,15.51
2022-10-19T07:08:25.514Z,15.49
2022-10-19T07:08:58.580Z,15.48
2022-10-19T07:09:31.494Z,15.45
2022-10-19T07:10:04.482Z,15.44
2022-10-19T07:10:37.549Z,15.43
2022-10-19T07:11:10.552Z,15.42